Harwich, MA (02645)

5:57 PM EDT on April 27, 2015 (GMT -0400)
East Harwich DW5051 | | Change Station
CLOSE
Current Station
Personal Weather Station
Location: East Harwich, MA
Elevation: 59 ft
Nearby Weather Stations

Elev 59 ft 41.72 °N, 70.03 °W | Updated 8 seconds ago

Mostly Cloudy
Mostly Cloudy
47.9 °F
Feels Like 48 °F
N
0.0
Wind Variable Wind from NNE
Gusts 11.0 mph

Today
High -- | Low -- °F
--% Chance of Precip.
Yesterday
High -- | Low -- °F
Precip. -- in
5:42 AM 7:33 PM
Waxing Gibbous, 68% visible
Pressure 29.57 in
Visibility 10.0 miles
Clouds Scattered Clouds 4000 ft
Overcast 5500 ft
Windchill 48 °F
Dew Point 43 °F
Humidity 83%
Rainfall 0.00 in
Snow Depth Not available.
UV 0.0 out of 12
Pollen 8.00 out of 12
Air Quality Not available.
Flu Activity Widespread
METAR KCQX 272152Z AUTO 02004KT 10SM -RA SCT040 OVC055 08/06 A2956 RMK AO2 RAB18 SLP011 P0001 T00830056 $

More Conditions Fewer Conditions

Pressure 29.57 in
Visibility 10.0 miles
Clouds Scattered Clouds 4000 ft
Overcast 5500 ft
Windchill 48 °F
Dew Point 43 °F
Humidity 83%
Rainfall 0.00 in
Snow Depth Not available.
UV 0.0 out of 12
Pollen 8.00 out of 12
Air Quality Not available.
Flu Activity Widespread
METAR KCQX 272152Z AUTO 02004KT 10SM -RA SCT040 OVC055 08/06 A2956 RMK AO2 RAB18 SLP011 P0001 T00830056 $

More Conditions Fewer Conditions

10-Day Weather Forecast

Almanac

Astronomy

Apr. 27, 2015 Rise Set
Actual Time
Civil Twilight
Nautical Twilight
Astronomical Twilight
Moon
Length of Visible Light
Length of Day
Tomorrow will be .
, % of the Moon is Illuminated

Today's Extremes

State Highs State Lows

Community

WunderPhotos

Upload Photos

1,817,435 photos uploaded!

WunderBlogs® & News

Nearby

Air Quality

  Air Quality AQ Index Pollutant
Not available.

Snow Depth

Station Depth Elevation

Earthquake Activity

City Distance Mag. Time & Date
Minimum magnitude displayed is 2.5.

Coastal Water Temperatures

Place Temperature

Stations

Nearby Weather Stations

Station Location Temp. Windchill Dew Point Humidity Wind Precip. Elev Updated Type